createdAt,value
2022-08-20T00:01:24.465Z,20.65
2022-08-20T00:04:11.560Z,20.64
2022-08-20T00:06:59.738Z,20.63
2022-08-20T00:09:46.551Z,20.60
2022-08-20T00:12:34.896Z,20.60
2022-08-20T00:15:25.015Z,20.58
2022-08-20T00:18:12.408Z,20.56
2022-08-20T00:21:01.120Z,20.55
2022-08-20T00:23:50.207Z,20.54
2022-08-20T00:26:51.671Z,20.51
2022-08-20T00:29:39.578Z,20.47
2022-08-20T00:32:26.546Z,20.48
2022-08-20T00:35:15.578Z,20.46
2022-08-20T00:38:03.257Z,20.45
2022-08-20T00:40:54.544Z,20.43
2022-08-20T00:43:45.116Z,20.42
2022-08-20T00:46:32.965Z,20.39
2022-08-20T00:49:29.034Z,20.38
2022-08-20T00:52:18.383Z,20.36
2022-08-20T00:55:05.682Z,20.32
2022-08-20T00:58:00.802Z,20.30
2022-08-20T01:00:52.266Z,20.26
2022-08-20T01:03:42.380Z,20.25
2022-08-20T01:06:29.482Z,20.24
2022-08-20T01:09:16.396Z,20.20
2022-08-20T01:12:07.137Z,20.20
2022-08-20T01:14:55.442Z,20.18
2022-08-20T01:17:51.042Z,20.16
2022-08-20T01:20:40.445Z,20.15
2022-08-20T01:23:50.826Z,20.13
2022-08-20T01:26:40.630Z,20.11
2022-08-20T01:29:33.146Z,20.10
2022-08-20T01:32:20.867Z,20.10
2022-08-20T01:35:08.747Z,20.08
2022-08-20T01:37:55.763Z,20.06
2022-08-20T01:40:51.720Z,20.04
2022-08-20T01:43:41.756Z,20.01
2022-08-20T01:46:43.742Z,19.99
2022-08-20T01:49:35.419Z,19.97
2022-08-20T01:52:34.612Z,19.95
2022-08-20T01:55:21.437Z,19.94
2022-08-20T01:58:10.609Z,19.91
2022-08-20T02:01:01.238Z,19.94
2022-08-20T02:03:51.302Z,19.91
2022-08-20T02:06:56.531Z,19.89
2022-08-20T02:09:44.507Z,19.87
2022-08-20T02:12:31.320Z,19.87
2022-08-20T02:15:18.098Z,19.84
2022-08-20T02:18:24.495Z,19.83
2022-08-20T02:21:14.102Z,19.81
2022-08-20T02:24:01.276Z,19.80
2022-08-20T02:26:48.315Z,19.77
2022-08-20T02:29:35.139Z,19.78
2022-08-20T02:32:24.693Z,19.77
2022-08-20T02:35:20.099Z,19.75
2022-08-20T02:38:07.165Z,19.74
2022-08-20T02:40:54.027Z,19.71
2022-08-20T02:43:41.268Z,19.71
2022-08-20T02:46:28.473Z,19.70
2022-08-20T02:49:17.694Z,19.68
2022-08-20T02:52:04.776Z,19.67
2022-08-20T02:54:52.183Z,19.60
2022-08-20T02:57:39.493Z,19.61
2022-08-20T03:00:32.216Z,19.61
2022-08-20T03:03:25.781Z,19.61
2022-08-20T03:06:13.085Z,19.60
2022-08-20T03:09:00.741Z,19.58
2022-08-20T03:11:47.535Z,19.58
2022-08-20T03:14:37.535Z,19.58
2022-08-20T03:17:24.343Z,19.58
2022-08-20T03:20:12.025Z,19.56
2022-08-20T03:22:59.069Z,19.56
2022-08-20T03:25:46.799Z,19.56
2022-08-20T03:28:36.250Z,19.56
2022-08-20T03:31:23.076Z,19.55
2022-08-20T03:34:09.873Z,19.53
2022-08-20T03:36:56.707Z,19.52
2022-08-20T03:39:47.498Z,19.51
2022-08-20T03:42:38.917Z,19.51
2022-08-20T03:45:27.494Z,19.49
2022-08-20T03:48:17.681Z,19.48
2022-08-20T03:54:43.442Z,19.44
2022-08-20T03:57:53.493Z,19.44
2022-08-20T04:00:47.702Z,19.41
2022-08-20T04:03:34.597Z,19.43
2022-08-20T04:06:21.369Z,19.41
2022-08-20T04:09:09.685Z,19.42
2022-08-20T04:12:00.186Z,19.41
2022-08-20T04:14:46.996Z,19.39
2022-08-20T04:17:33.814Z,19.38
2022-08-20T04:20:25.545Z,19.37
2022-08-20T04:23:14.148Z,19.38
2022-08-20T04:26:01.397Z,19.35
2022-08-20T04:28:48.194Z,19.33
2022-08-20T04:31:35.116Z,19.32
2022-08-20T04:34:22.293Z,19.32
2022-08-20T04:37:16.916Z,19.30
2022-08-20T04:40:24.332Z,19.28
2022-08-20T04:43:12.349Z,19.28
2022-08-20T04:46:01.801Z,19.28
2022-08-20T04:51:25.206Z,19.24
2022-08-20T04:54:14.511Z,19.25
2022-08-20T04:57:01.919Z,19.24
2022-08-20T04:59:48.747Z,19.23
2022-08-20T05:02:42.780Z,19.21
2022-08-20T05:05:30.796Z,19.19
2022-08-20T05:08:20.321Z,19.19
2022-08-20T05:11:34.221Z,19.18
2022-08-20T05:14:16.195Z,19.17
2022-08-20T05:17:05.181Z,19.16
2022-08-20T05:19:52.992Z,19.15
2022-08-20T05:22:39.948Z,19.13
2022-08-20T05:25:30.653Z,19.12
2022-08-20T05:28:28.695Z,19.12
2022-08-20T05:31:15.509Z,19.10
2022-08-20T05:34:09.322Z,19.08
2022-08-20T05:36:56.293Z,19.09
2022-08-20T05:39:44.210Z,19.08
2022-08-20T05:42:31.026Z,19.08
2022-08-20T05:45:18.159Z,19.07
2022-08-20T05:48:11.403Z,19.06
2022-08-20T05:50:58.589Z,19.08
2022-08-20T05:53:45.393Z,19.07
2022-08-20T05:56:32.526Z,19.05
2022-08-20T05:59:24.036Z,19.05
2022-08-20T06:02:31.030Z,19.05
2022-08-20T06:05:19.694Z,19.04
2022-08-20T06:08:08.254Z,19.03
2022-08-20T06:10:55.727Z,19.05
2022-08-20T06:13:42.581Z,19.04
2022-08-20T06:16:30.896Z,19.03
2022-08-20T06:19:25.002Z,19.03
2022-08-20T06:22:19.697Z,19.04
2022-08-20T06:25:11.992Z,19.03
2022-08-20T06:27:58.810Z,19.04
2022-08-20T06:30:45.755Z,19.06
2022-08-20T06:33:32.613Z,19.04
2022-08-20T06:36:19.658Z,19.05
2022-08-20T06:39:06.482Z,19.05
2022-08-20T06:41:53.344Z,19.05
2022-08-20T06:44:42.228Z,19.05
2022-08-20T06:47:30.284Z,19.05
2022-08-20T06:50:22.262Z,19.07
2022-08-20T06:53:10.538Z,19.06
2022-08-20T06:55:59.213Z,19.06
2022-08-20T06:58:46.037Z,19.04
2022-08-20T07:01:32.955Z,19.02
2022-08-20T07:04:19.910Z,19.04
2022-08-20T07:07:07.278Z,19.06
2022-08-20T07:10:20.818Z,19.07
2022-08-20T07:13:07.648Z,19.08
2022-08-20T07:15:55.232Z,19.10
2022-08-20T07:18:42.398Z,19.13
2022-08-20T07:21:30.335Z,19.13
2022-08-20T07:24:17.151Z,19.14
2022-08-20T07:27:04.373Z,19.13
2022-08-20T07:30:15.141Z,19.14
2022-08-20T07:33:02.103Z,19.13
2022-08-20T07:35:52.709Z,19.14
2022-08-20T07:38:47.600Z,19.15
2022-08-20T07:41:34.473Z,19.16
2022-08-20T07:44:25.810Z,19.15
2022-08-20T07:47:21.328Z,19.15
2022-08-20T07:50:15.823Z,19.18
2022-08-20T07:53:02.703Z,19.19
2022-08-20T07:55:58.726Z,19.20
2022-08-20T07:58:50.503Z,19.21
2022-08-20T08:01:37.543Z,19.22
2022-08-20T08:04:25.667Z,19.24
2022-08-20T08:07:12.992Z,19.24
2022-08-20T08:10:02.082Z,19.26
2022-08-20T08:12:52.059Z,19.27
2022-08-20T08:15:42.850Z,19.28
2022-08-20T08:18:34.874Z,19.30
2022-08-20T08:21:23.697Z,19.29
2022-08-20T08:24:12.682Z,19.31
2022-08-20T08:27:01.301Z,19.29
2022-08-20T08:29:49.731Z,19.31
2022-08-20T08:32:58.172Z,19.33
2022-08-20T08:35:46.272Z,19.34
2022-08-20T08:38:34.539Z,19.35
2022-08-20T08:41:32.035Z,19.37
2022-08-20T08:44:30.789Z,19.39
2022-08-20T08:47:36.229Z,19.40
2022-08-20T08:50:50.066Z,19.41
2022-08-20T08:53:40.023Z,19.42
2022-08-20T08:56:29.361Z,19.44
2022-08-20T08:59:16.211Z,19.43
2022-08-20T09:02:03.109Z,19.45
2022-08-20T09:04:51.587Z,19.48
2022-08-20T09:07:38.462Z,19.49
2022-08-20T09:10:25.335Z,19.52
2022-08-20T09:13:12.495Z,19.53
2022-08-20T09:15:59.434Z,19.54
2022-08-20T09:18:46.296Z,19.55
2022-08-20T09:21:33.072Z,19.56
2022-08-20T09:24:19.958Z,19.57
2022-08-20T09:27:06.905Z,19.56
2022-08-20T09:29:53.681Z,19.60
2022-08-20T09:32:41.730Z,19.61
2022-08-20T09:35:29.634Z,19.62
2022-08-20T09:38:16.518Z,19.63
2022-08-20T09:41:03.317Z,19.62
2022-08-20T09:43:50.136Z,19.65
2022-08-20T09:46:37.033Z,19.67
2022-08-20T09:49:23.794Z,19.69
2022-08-20T09:52:12.108Z,19.71
2022-08-20T09:55:01.744Z,19.73
2022-08-20T09:57:49.986Z,19.74
2022-08-20T10:00:36.940Z,19.74
2022-08-20T10:03:23.718Z,19.77
2022-08-20T10:06:11.388Z,19.79
2022-08-20T10:08:58.434Z,19.83
2022-08-20T10:11:47.654Z,19.85
2022-08-20T10:14:34.438Z,19.86
2022-08-20T10:17:21.778Z,19.86
2022-08-20T10:20:10.605Z,19.87
2022-08-20T10:22:57.454Z,19.88
2022-08-20T10:25:44.276Z,19.90
2022-08-20T10:28:31.104Z,19.92
2022-08-20T10:31:17.883Z,19.92
2022-08-20T10:34:05.853Z,19.92
2022-08-20T10:36:52.737Z,19.93
2022-08-20T10:39:39.590Z,19.93
2022-08-20T10:42:26.477Z,19.94
2022-08-20T10:45:16.130Z,19.95
2022-08-20T10:48:03.167Z,19.96
2022-08-20T10:50:50.520Z,19.99
2022-08-20T10:53:37.295Z,19.98
2022-08-20T10:56:24.066Z,20.00
2022-08-20T10:59:10.863Z,20.00
2022-08-20T11:01:57.784Z,20.03
2022-08-20T11:04:45.147Z,20.03
2022-08-20T11:07:50.710Z,20.03
2022-08-20T11:10:42.175Z,20.04
2022-08-20T11:13:28.990Z,20.06
2022-08-20T11:16:15.764Z,20.05
2022-08-20T11:19:02.560Z,20.08
2022-08-20T11:21:49.337Z,20.07
2022-08-20T11:24:36.206Z,20.10
2022-08-20T11:27:31.457Z,20.11
2022-08-20T11:30:22.051Z,20.11
2022-08-20T11:33:08.910Z,20.10
2022-08-20T11:35:55.863Z,20.13
2022-08-20T11:38:42.956Z,20.15
2022-08-20T11:41:29.752Z,20.15
2022-08-20T11:44:20.975Z,20.17
2022-08-20T11:47:24.521Z,20.19
2022-08-20T11:50:19.624Z,20.19
2022-08-20T11:53:08.018Z,20.21
2022-08-20T11:55:54.983Z,20.23
2022-08-20T11:58:42.997Z,20.24
2022-08-20T12:01:29.792Z,20.26
2022-08-20T12:04:16.577Z,20.25
2022-08-20T12:07:11.313Z,20.27
2022-08-20T12:09:58.389Z,20.27
2022-08-20T12:12:45.202Z,20.27
2022-08-20T12:15:34.146Z,20.28
2022-08-20T12:18:21.739Z,20.29
2022-08-20T12:21:14.531Z,20.30
2022-08-20T12:24:01.330Z,20.30
2022-08-20T12:26:48.115Z,20.30
2022-08-20T12:29:34.921Z,20.31
2022-08-20T12:32:26.312Z,20.32
2022-08-20T12:35:15.358Z,20.33
2022-08-20T12:38:05.203Z,20.33
2022-08-20T12:40:51.987Z,20.34
2022-08-20T12:43:38.799Z,20.36
2022-08-20T12:46:25.594Z,20.36
2022-08-20T12:49:12.403Z,20.38
2022-08-20T12:51:59.205Z,20.38
2022-08-20T12:54:46.080Z,20.38
2022-08-20T12:57:39.535Z,20.40
2022-08-20T13:00:44.406Z,20.43
2022-08-20T13:03:40.791Z,20.46
2022-08-20T13:06:38.628Z,20.49
2022-08-20T13:09:56.069Z,20.48
2022-08-20T13:12:46.278Z,20.49
2022-08-20T13:15:33.320Z,20.47
2022-08-20T13:18:20.812Z,20.51
2022-08-20T13:21:07.604Z,20.52
2022-08-20T13:23:54.606Z,20.56
2022-08-20T13:26:41.405Z,20.57
2022-08-20T13:29:28.246Z,20.58
2022-08-20T13:32:15.371Z,20.57
2022-08-20T13:35:02.188Z,20.59
2022-08-20T13:37:49.813Z,20.60
2022-08-20T13:40:36.628Z,20.61
2022-08-20T13:43:23.449Z,20.61
2022-08-20T13:46:10.244Z,20.63
2022-08-20T13:48:57.048Z,20.64
2022-08-20T13:51:44.036Z,20.65
2022-08-20T13:54:30.826Z,20.66
2022-08-20T13:57:19.398Z,20.67
2022-08-20T14:00:11.214Z,20.68
2022-08-20T14:02:58.413Z,20.69
2022-08-20T14:05:45.433Z,20.71
2022-08-20T14:08:32.526Z,20.71
2022-08-20T14:11:19.405Z,20.72
2022-08-20T14:14:06.198Z,20.73
2022-08-20T14:18:04.472Z,20.78
2022-08-20T14:20:51.394Z,20.78
2022-08-20T14:23:38.183Z,20.81
2022-08-20T14:26:25.053Z,20.81
2022-08-20T14:29:11.892Z,20.82
2022-08-20T14:32:00.878Z,20.82
2022-08-20T14:34:49.247Z,20.83
2022-08-20T14:37:38.255Z,20.84
2022-08-20T14:40:26.512Z,20.84
2022-08-20T14:43:13.316Z,20.84
2022-08-20T14:46:00.096Z,20.87
2022-08-20T14:48:46.889Z,20.88
2022-08-20T14:51:40.199Z,20.88
2022-08-20T14:54:26.984Z,20.90
2022-08-20T14:57:15.068Z,20.91
2022-08-20T15:00:02.052Z,20.90
2022-08-20T15:02:49.218Z,20.91
2022-08-20T15:05:39.488Z,20.94
2022-08-20T15:08:28.830Z,20.94
2022-08-20T15:11:15.839Z,20.94
2022-08-20T15:14:02.646Z,20.92
2022-08-20T15:16:49.475Z,20.95
2022-08-20T15:19:36.265Z,20.95
2022-08-20T15:22:23.778Z,20.96
2022-08-20T15:25:14.896Z,20.98
2022-08-20T15:28:02.013Z,20.99
2022-08-20T15:30:48.957Z,20.99
2022-08-20T15:33:35.938Z,20.99
2022-08-20T15:36:22.809Z,21.00
2022-08-20T15:39:09.581Z,20.99
2022-08-20T15:41:56.368Z,21.02
2022-08-20T15:44:43.724Z,20.99
2022-08-20T15:47:35.238Z,20.99
2022-08-20T15:50:24.761Z,20.99
2022-08-20T15:53:16.421Z,20.99
2022-08-20T15:56:44.964Z,20.99
2022-08-20T15:59:59.776Z,20.97
2022-08-20T16:03:06.911Z,20.95
2022-08-20T16:06:04.603Z,20.94
2022-08-20T16:09:38.691Z,20.96
2022-08-20T16:12:36.050Z,20.94
2022-08-20T16:15:26.227Z,20.91
2022-08-20T16:18:19.432Z,20.92
2022-08-20T16:21:09.747Z,20.91
2022-08-20T16:23:57.489Z,20.89
2022-08-20T16:27:10.403Z,20.91
2022-08-20T16:30:34.560Z,20.90
2022-08-20T16:33:36.157Z,20.88
2022-08-20T19:38:18.812Z,20.35
2022-08-20T19:41:48.330Z,20.31
2022-08-20T20:13:31.265Z,20.17
2022-08-20T20:50:47.384Z,19.93
2022-08-20T21:01:53.302Z,19.88
2022-08-20T21:05:42.571Z,19.84
2022-08-20T21:09:20.617Z,19.81
2022-08-20T21:13:02.509Z,19.82
2022-08-20T21:16:00.255Z,19.77
2022-08-20T21:19:19.421Z,19.75
2022-08-20T21:22:22.056Z,19.73
2022-08-20T21:25:22.869Z,19.73
2022-08-20T21:28:19.985Z,19.69
2022-08-20T21:31:31.114Z,19.73
2022-08-20T21:34:55.079Z,19.68
2022-08-20T21:37:58.227Z,19.67
2022-08-20T21:41:01.489Z,19.64
2022-08-20T21:44:07.435Z,19.61
2022-08-20T21:47:21.211Z,19.57
2022-08-20T21:53:42.348Z,19.55
2022-08-20T21:56:37.184Z,19.55
2022-08-20T21:59:51.705Z,19.51
2022-08-20T22:02:41.471Z,19.51
2022-08-20T22:05:42.500Z,19.51
2022-08-20T22:08:39.977Z,19.44
2022-08-20T22:11:34.000Z,19.43
2022-08-20T22:14:30.965Z,19.42
2022-08-20T22:17:32.986Z,19.43
2022-08-20T22:20:24.528Z,19.39
2022-08-20T22:23:27.492Z,19.37
2022-08-20T22:26:38.009Z,19.37
2022-08-20T22:29:45.128Z,19.34
2022-08-20T22:32:52.262Z,19.35
2022-08-20T22:36:00.479Z,19.30
2022-08-20T22:38:57.477Z,19.29
2022-08-20T22:42:05.337Z,19.24
2022-08-20T22:44:53.657Z,19.26
2022-08-20T22:47:46.962Z,19.22
2022-08-20T22:50:47.745Z,19.26
2022-08-20T22:53:52.802Z,19.22
2022-08-20T22:56:51.470Z,19.17
2022-08-20T22:59:52.940Z,19.18
2022-08-20T23:02:48.944Z,19.15
2022-08-20T23:05:46.472Z,19.16
2022-08-20T23:08:51.900Z,19.15
2022-08-20T23:12:06.193Z,19.11
2022-08-20T23:14:57.902Z,19.10
2022-08-20T23:18:12.706Z,19.07
2022-08-20T23:21:23.581Z,19.06
2022-08-20T23:24:28.704Z,19.02
2022-08-20T23:27:31.543Z,19.04
2022-08-20T23:30:37.962Z,18.98
2022-08-20T23:33:41.768Z,18.97
2022-08-20T23:36:39.833Z,18.98
2022-08-20T23:39:58.763Z,18.95
2022-08-20T23:42:51.493Z,18.93
2022-08-20T23:45:48.568Z,18.96
2022-08-20T23:48:51.658Z,18.95
2022-08-20T23:51:44.684Z,18.90
2022-08-20T23:54:37.274Z,18.87
2022-08-20T23:57:35.861Z,18.87
